Time;durP1;ratioP1;P1;durP2;ratioP2;P2;SDS_P1;SDS_P2;PMS_P1;PMS_P2;Temp;Humidity;BMP_temperature;BMP_pressure;BME280_temperature;BME280_humidity;BME280_pressure;Samples;Min_cycle;Max_cycle;Signal;HPM_P1;HPM_P2
2021/10/13 00:00:01;;;;;;;2.00;0.98;;;18.30;65.80;;;;;;5016681;28;87592;-72
2021/10/13 00:02:26;;;;;;;2.65;1.70;;;18.30;65.20;;;;;;5016430;28;88789;-72
2021/10/13 00:04:54;;;;;;;2.05;0.93;;;18.30;67.20;;;;;;5016522;28;93021;-72
2021/10/13 00:07:20;;;;;;;0.90;0.50;;;18.30;66.80;;;;;;5016184;28;89045;-72
2021/10/13 00:09:46;;;;;;;1.50;0.85;;;18.30;69.60;;;;;;5016314;28;88286;-73
2021/10/13 00:12:11;;;;;;;2.17;1.38;;;18.30;67.70;;;;;;5015629;28;88566;-73
2021/10/13 00:14:37;;;;;;;2.95;1.27;;;18.40;70.10;;;;;;5016380;28;88421;-72
2021/10/13 00:17:04;;;;;;;2.92;1.05;;;18.40;67.10;;;;;;5014748;28;88399;-72
2021/10/13 00:19:30;;;;;;;2.85;1.45;;;18.40;67.60;;;;;;5016172;28;88044;-73
2021/10/13 00:21:55;;;;;;;2.40;1.15;;;18.40;69.10;;;;;;5014849;28;88691;-72
2021/10/13 00:24:21;;;;;;;1.77;0.98;;;18.40;68.40;;;;;;5014964;28;91251;-72
2021/10/13 00:26:47;;;;;;;4.05;1.55;;;18.40;68.80;;;;;;5015092;28;88001;-73
2021/10/13 00:29:12;;;;;;;2.88;1.75;;;18.40;68.20;;;;;;5014379;28;88489;-72
2021/10/13 00:31:38;;;;;;;1.10;0.80;;;18.40;69.90;;;;;;5015446;28;89437;-73
2021/10/13 00:34:04;;;;;;;2.45;0.95;;;18.40;68.70;;;;;;5018518;28;89227;-73
2021/10/13 00:36:29;;;;;;;3.92;1.23;;;18.40;69.90;;;;;;5019830;28;88741;-72
2021/10/13 00:38:55;;;;;;;4.57;1.30;;;18.30;67.60;;;;;;5019152;28;88320;-73
2021/10/13 00:41:20;;;;;;;3.10;0.95;;;18.40;65.80;;;;;;5019151;28;88856;-72
2021/10/13 00:43:46;;;;;;;1.65;0.45;;;18.40;67.60;;;;;;5017585;28;103135;-73
2021/10/13 00:46:11;;;;;;;2.08;0.82;;;18.40;69.70;;;;;;5018016;28;89190;-73
2021/10/13 00:48:37;;;;;;;2.63;1.05;;;18.40;67.90;;;;;;5018743;28;88067;-72
2021/10/13 00:51:03;;;;;;;4.43;1.17;;;18.40;68.50;;;;;;5017515;28;96013;-73
2021/10/13 00:53:29;;;;;;;2.15;1.05;;;18.40;67.80;;;;;;5001771;28;88523;-72
2021/10/13 00:55:56;;;;;;;1.67;0.85;;;18.40;66.20;;;;;;5000687;28;89016;-72
2021/10/13 00:58:22;;;;;;;3.75;1.10;;;18.30;69.80;;;;;;5019009;28;88536;-72
2021/10/13 01:00:50;;;;;;;2.25;1.10;;;18.30;68.10;;;;;;5016485;28;88693;-72
2021/10/13 01:03:42;;;;;;;3.63;0.90;;;18.30;67.10;;;;;;5017031;28;88628;-72
2021/10/13 01:06:52;;;;;;;3.10;1.00;;;18.30;66.80;;;;;;5016674;28;88011;-72
2021/10/13 01:09:23;;;;;;;6.13;1.38;;;18.30;68.70;;;;;;4963824;28;88520;-73
2021/10/13 01:12:17;;;;;;;2.33;1.00;;;18.30;66.80;;;;;;5009804;28;88850;-72
2021/10/13 01:14:46;;;;;;;5.87;1.50;;;18.30;66.60;;;;;;5018332;28;87416;-72
2021/10/13 01:17:34;;;;;;;0.70;0.60;;;18.30;67.70;;;;;;5008396;28;88319;-73
2021/10/13 01:20:34;;;;;;;1.40;0.90;;;18.30;69.70;;;;;;5015878;28;88353;-73
2021/10/13 01:23:14;;;;;;;3.80;0.90;;;18.30;67.70;;;;;;5016028;28;89072;-72
2021/10/13 01:25:45;;;;;;;3.92;1.08;;;18.30;66.60;;;;;;5000234;28;91650;-72
2021/10/13 01:28:12;;;;;;;2.47;1.00;;;18.30;67.60;;;;;;5017815;28;87991;-73
2021/10/13 01:30:54;;;;;;;3.55;0.88;;;18.30;69.30;;;;;;5015901;28;90250;-72
2021/10/13 01:33:26;;;;;;;3.33;1.27;;;18.30;66.70;;;;;;5016289;28;88634;-73
2021/10/13 01:35:55;;;;;;;2.23;0.70;;;18.30;67.10;;;;;;5015741;28;88791;-72
2021/10/13 01:38:25;;;;;;;2.60;1.15;;;18.30;65.90;;;;;;5032709;28;87945;-72
2021/10/13 01:40:53;;;;;;;5.40;1.27;;;18.20;65.90;;;;;;5017859;28;88076;-73
2021/10/13 01:43:20;;;;;;;3.13;1.10;;;18.30;67.60;;;;;;5016560;28;88528;-73
2021/10/13 01:45:48;;;;;;;4.38;1.10;;;18.30;66.90;;;;;;5050096;27;88404;-72
2021/10/13 01:48:13;;;;;;;3.70;1.55;;;18.30;68.80;;;;;;5017435;28;88925;-73
2021/10/13 01:50:39;;;;;;;1.48;0.70;;;18.20;66.20;;;;;;5023527;28;88012;-72
2021/10/13 01:53:06;;;;;;;2.92;1.00;;;18.20;65.30;;;;;;5014711;28;91227;-72
2021/10/13 01:55:31;;;;;;;2.75;1.45;;;18.20;66.30;;;;;;5033812;28;88276;-72
2021/10/13 01:57:58;;;;;;;5.25;1.20;;;18.20;66.20;;;;;;5050555;27;88458;-72
2021/10/13 02:00:23;;;;;;;1.92;1.33;;;18.20;67.10;;;;;;5033441;28;88109;-73
2021/10/13 02:02:49;;;;;;;8.27;1.60;;;18.20;68.20;;;;;;5017705;28;88091;-73
2021/10/13 02:05:15;;;;;;;3.10;1.08;;;18.20;67.90;;;;;;5033277;28;97933;-72
2021/10/13 02:07:40;;;;;;;2.97;0.90;;;18.20;69.40;;;;;;5033395;28;88325;-73
2021/10/13 02:10:08;;;;;;;3.15;0.93;;;18.30;69.10;;;;;;5033350;28;88097;-72
2021/10/13 02:12:34;;;;;;;5.38;1.15;;;18.20;64.80;;;;;;5015398;28;93322;-72
2021/10/13 02:15:01;;;;;;;2.40;0.80;;;18.10;65.50;;;;;;5050043;27;89588;-72
2021/10/13 02:17:26;;;;;;;2.67;1.00;;;18.10;67.20;;;;;;5033460;28;88113;-72
2021/10/13 02:19:52;;;;;;;6.35;1.10;;;18.20;66.90;;;;;;5049661;27;88712;-72
2021/10/13 02:22:18;;;;;;;3.42;1.60;;;18.20;66.80;;;;;;5016430;28;88616;-73
2021/10/13 02:24:49;;;;;;;2.75;0.85;;;18.20;66.10;;;;;;5016622;28;88929;-72
2021/10/13 02:27:29;;;;;;;5.35;1.08;;;18.10;66.70;;;;;;5016056;28;88096;-72
2021/10/13 02:29:55;;;;;;;4.05;0.93;;;18.10;65.70;;;;;;5049785;27;87562;-72
2021/10/13 02:32:20;;;;;;;5.05;1.70;;;18.10;66.10;;;;;;5016076;28;90440;-72
2021/10/13 02:34:46;;;;;;;3.03;0.85;;;18.10;67.20;;;;;;5050007;27;88264;-73
2021/10/13 02:37:11;;;;;;;3.05;0.93;;;18.10;68.20;;;;;;5016872;28;96045;-72
2021/10/13 02:39:37;;;;;;;4.22;1.20;;;18.20;68.60;;;;;;5050326;27;88283;-72
2021/10/13 02:42:03;;;;;;;2.88;1.00;;;18.20;67.60;;;;;;5016906;28;107046;-72
2021/10/13 02:44:28;;;;;;;4.35;0.90;;;18.20;67.40;;;;;;5049646;27;88279;-72
2021/10/13 02:46:55;;;;;;;3.00;0.90;;;18.20;67.50;;;;;;5032900;28;88353;-73
2021/10/13 02:49:52;;;;;;;5.45;1.30;;;18.10;65.90;;;;;;5049618;27;88383;-72
2021/10/13 02:52:29;;;;;;;4.43;0.90;;;18.20;66.40;;;;;;5016101;28;90581;-72
2021/10/13 02:54:59;;;;;;;3.05;0.90;;;18.20;68.50;;;;;;5016626;28;88497;-72
2021/10/13 02:57:33;;;;;;;3.85;1.20;;;18.20;67.60;;;;;;5015706;28;88203;-72
2021/10/13 02:59:59;;;;;;;2.28;1.00;;;18.10;66.70;;;;;;5000257;28;88210;-73
2021/10/13 03:02:25;;;;;;;1.33;0.65;;;18.10;67.60;;;;;;5014334;28;110506;-72
2021/10/13 03:04:56;;;;;;;3.42;0.93;;;18.20;68.80;;;;;;4981077;28;91971;-72
2021/10/13 03:07:24;;;;;;;0.68;0.40;;;18.10;68.70;;;;;;5015039;28;88278;-72
2021/10/13 03:09:54;;;;;;;2.85;0.70;;;18.20;70.40;;;;;;5015027;28;88822;-72
2021/10/13 03:12:20;;;;;;;2.17;0.90;;;18.20;69.60;;;;;;4997903;28;88012;-72
2021/10/13 03:14:46;;;;;;;2.33;1.20;;;18.20;67.60;;;;;;4982477;28;90053;-72
2021/10/13 03:17:11;;;;;;;3.83;2.15;;;18.20;65.60;;;;;;4999318;28;97196;-73
2021/10/13 03:19:39;;;;;;;2.60;1.23;;;18.20;68.10;;;;;;5017209;28;91888;-72
2021/10/13 03:22:04;;;;;;;4.72;1.00;;;18.20;67.60;;;;;;4981684;28;91035;-72
2021/10/13 03:24:30;;;;;;;2.97;0.90;;;18.20;67.20;;;;;;5015365;28;89498;-72
2021/10/13 03:26:56;;;;;;;3.15;0.93;;;18.20;67.20;;;;;;5015460;28;88926;-72
2021/10/13 03:29:21;;;;;;;3.20;1.02;;;18.20;67.20;;;;;;5016670;28;97336;-72
2021/10/13 03:31:47;;;;;;;4.10;1.00;;;18.10;66.60;;;;;;5017312;28;88595;-73
2021/10/13 03:34:16;;;;;;;3.00;1.10;;;18.10;65.50;;;;;;5016836;28;88281;-72
2021/10/13 03:36:46;;;;;;;1.95;0.90;;;18.10;67.00;;;;;;4998586;28;89379;-72
2021/10/13 03:39:12;;;;;;;3.30;1.23;;;18.10;69.90;;;;;;4998609;28;90529;-73
2021/10/13 03:41:38;;;;;;;2.35;0.98;;;18.10;66.20;;;;;;5015265;28;88403;-72
2021/10/13 03:44:04;;;;;;;2.40;1.08;;;18.10;67.70;;;;;;4998416;28;91021;-72
2021/10/13 03:46:29;;;;;;;3.08;0.80;;;18.10;69.90;;;;;;5016557;28;88243;-73
2021/10/13 03:48:55;;;;;;;1.90;0.82;;;18.10;69.50;;;;;;5016265;28;88032;-73
2021/10/13 03:51:21;;;;;;;2.55;0.82;;;18.20;70.60;;;;;;4998340;28;89467;-72
2021/10/13 03:53:47;;;;;;;4.40;1.00;;;18.10;68.80;;;;;;5015028;28;98982;-73
2021/10/13 03:56:12;;;;;;;3.03;0.95;;;18.10;68.70;;;;;;5014842;28;89415;-73
2021/10/13 03:58:38;;;;;;;2.30;0.73;;;18.10;69.60;;;;;;4998774;28;88034;-72
2021/10/13 04:01:04;;;;;;;1.10;0.60;;;18.10;68.80;;;;;;5015760;28;88006;-73
2021/10/13 04:03:29;;;;;;;4.80;1.00;;;18.10;69.20;;;;;;5014772;28;89012;-73
2021/10/13 04:05:55;;;;;;;3.85;1.10;;;18.10;69.60;;;;;;5014538;28;88748;-73
2021/10/13 04:08:21;;;;;;;2.65;0.95;;;18.10;68.00;;;;;;4997800;28;90238;-72
2021/10/13 04:10:46;;;;;;;3.05;0.73;;;18.10;69.80;;;;;;5016271;28;88841;-73
2021/10/13 04:13:12;;;;;;;1.15;0.88;;;18.10;68.40;;;;;;4997259;28;105676;-73
2021/10/13 04:15:37;;;;;;;1.67;0.57;;;18.10;70.30;;;;;;5016161;28;89245;-72
2021/10/13 04:18:04;;;;;;;2.05;1.52;;;18.10;70.60;;;;;;5014505;28;96683;-72
2021/10/13 04:20:30;;;;;;;1.25;0.80;;;18.10;70.80;;;;;;5014546;28;89818;-72
2021/10/13 04:22:55;;;;;;;1.73;1.02;;;18.10;70.60;;;;;;5016047;28;88499;-73
2021/10/13 04:25:21;;;;;;;4.03;1.30;;;18.10;70.80;;;;;;5016173;28;87971;-72
2021/10/13 04:27:46;;;;;;;1.25;0.47;;;18.00;67.00;;;;;;5015012;28;88353;-72
2021/10/13 04:30:12;;;;;;;3.80;0.85;;;18.10;70.30;;;;;;5015316;28;88480;-72
2021/10/13 04:32:37;;;;;;;0.85;0.50;;;18.10;69.80;;;;;;5016677;28;94959;-72
2021/10/13 04:35:04;;;;;;;2.25;0.68;;;18.10;70.60;;;;;;5014784;28;88382;-73
2021/10/13 04:37:29;;;;;;;1.17;0.85;;;18.10;70.90;;;;;;4997676;28;89749;-73
2021/10/13 04:39:55;;;;;;;2.35;1.30;;;18.10;70.40;;;;;;5015646;28;89426;-73
2021/10/13 04:42:20;;;;;;;2.05;0.80;;;18.10;71.10;;;;;;5014796;28;89298;-73
2021/10/13 04:44:46;;;;;;;2.70;0.52;;;18.10;70.70;;;;;;5014224;28;103110;-73
2021/10/13 04:47:11;;;;;;;4.20;3.90;;;18.10;71.30;;;;;;4997475;28;89364;-73
2021/10/13 04:49:37;;;;;;;0.40;0.40;;;18.10;70.50;;;;;;5015259;28;93250;-73
2021/10/13 04:52:03;;;;;;;1.58;0.75;;;18.10;70.60;;;;;;5014932;28;101503;-73
2021/10/13 04:54:28;;;;;;;2.45;0.70;;;18.10;71.10;;;;;;5018291;28;88332;-72
2021/10/13 04:56:54;;;;;;;3.55;1.35;;;18.10;70.80;;;;;;5015039;28;87828;-73
2021/10/13 04:59:19;;;;;;;2.45;1.13;;;18.10;70.20;;;;;;4997564;28;91501;-73
2021/10/13 05:01:45;;;;;;;0.80;0.75;;;18.10;70.30;;;;;;5014539;28;88296;-73
2021/10/13 05:04:11;;;;;;;1.77;0.60;;;18.10;71.20;;;;;;5013507;28;89704;-73
2021/10/13 05:06:36;;;;;;;2.20;0.60;;;18.10;69.80;;;;;;5015131;28;88257;-72
2021/10/13 05:09:02;;;;;;;5.68;1.15;;;18.10;68.30;;;;;;5015661;28;88671;-73
2021/10/13 05:11:27;;;;;;;4.50;1.05;;;18.10;67.70;;;;;;5014873;28;88266;-73
2021/10/13 05:13:53;;;;;;;2.90;0.90;;;18.10;67.50;;;;;;5015420;28;87955;-73
2021/10/13 05:16:19;;;;;;;4.75;1.00;;;18.20;66.80;;;;;;5014865;28;88352;-73
2021/10/13 05:18:44;;;;;;;4.05;0.90;;;18.30;66.20;;;;;;5013314;28;88656;-73
2021/10/13 05:21:10;;;;;;;1.73;0.65;;;18.40;68.60;;;;;;5018140;28;88286;-73
2021/10/13 05:23:35;;;;;;;3.85;0.93;;;18.40;68.00;;;;;;5017691;28;88498;-73
2021/10/13 05:26:01;;;;;;;5.40;1.17;;;18.40;67.70;;;;;;5017165;28;92110;-73
2021/10/13 05:28:26;;;;;;;4.30;1.00;;;18.40;66.20;;;;;;5017268;28;88824;-73
2021/10/13 05:30:52;;;;;;;1.05;0.85;;;18.30;69.20;;;;;;5017700;28;98085;-73
2021/10/13 05:33:17;;;;;;;1.48;1.15;;;18.40;70.30;;;;;;5016023;28;88662;-74
2021/10/13 05:35:43;;;;;;;2.42;1.23;;;18.40;70.00;;;;;;5014697;28;88019;-73
2021/10/13 05:38:09;;;;;;;3.60;0.93;;;18.40;69.00;;;;;;5040755;27;107260;-73
2021/10/13 05:40:34;;;;;;;2.03;0.93;;;18.50;66.60;;;;;;5016224;28;98144;-73
2021/10/13 05:43:00;;;;;;;3.05;1.05;;;18.50;66.70;;;;;;5019021;28;87944;-74
2021/10/13 05:45:25;;;;;;;3.20;1.20;;;18.50;67.40;;;;;;5017708;28;88608;-73
2021/10/13 05:47:51;;;;;;;2.17;1.00;;;18.40;65.90;;;;;;5018596;28;88531;-73
2021/10/13 05:50:16;;;;;;;2.25;0.90;;;18.40;65.70;;;;;;5023424;28;88849;-73
2021/10/13 05:52:42;;;;;;;3.03;1.10;;;18.40;67.40;;;;;;5018946;28;103279;-73
2021/10/13 05:55:08;;;;;;;4.18;1.10;;;18.50;67.70;;;;;;5018675;28;88031;-73
2021/10/13 05:57:33;;;;;;;4.97;1.30;;;18.50;66.60;;;;;;5018835;28;88521;-73
2021/10/13 05:59:59;;;;;;;2.47;1.48;;;18.40;65.80;;;;;;5000406;28;91855;-73
2021/10/13 06:02:25;;;;;;;2.38;1.10;;;18.30;66.80;;;;;;5024428;28;88098;-73
2021/10/13 06:04:51;;;;;;;2.85;1.00;;;18.30;67.30;;;;;;5003713;28;90402;-73
2021/10/13 06:07:17;;;;;;;3.35;1.00;;;18.30;66.70;;;;;;5017527;28;88538;-73
2021/10/13 06:09:42;;;;;;;4.15;1.00;;;18.30;66.40;;;;;;5019764;28;92370;-74
2021/10/13 06:12:08;;;;;;;2.85;0.90;;;18.30;67.30;;;;;;5014717;28;97081;-73
2021/10/13 06:14:34;;;;;;;2.45;1.40;;;18.30;67.70;;;;;;5018684;28;90541;-73
2021/10/13 06:17:00;;;;;;;5.47;1.13;;;18.30;66.70;;;;;;5013815;28;89187;-73
2021/10/13 06:19:25;;;;;;;4.03;0.73;;;18.30;65.90;;;;;;4991998;28;91738;-74
2021/10/13 06:21:51;;;;;;;1.60;0.90;;;18.30;66.20;;;;;;5014520;28;88348;-73
2021/10/13 06:24:16;;;;;;;2.97;0.80;;;18.20;66.90;;;;;;5019209;28;90450;-73
2021/10/13 06:26:42;;;;;;;2.88;0.90;;;18.30;66.60;;;;;;5029580;28;88798;-74
2021/10/13 06:29:09;;;;;;;2.80;1.10;;;18.30;67.50;;;;;;5020706;28;88611;-74
2021/10/13 06:31:35;;;;;;;4.97;1.17;;;18.30;66.20;;;;;;5049211;27;88356;-73
2021/10/13 06:34:00;;;;;;;2.05;1.45;;;18.30;66.30;;;;;;5026075;28;87724;-73
2021/10/13 06:36:26;;;;;;;4.50;1.13;;;18.30;68.80;;;;;;5016937;28;91685;-73
2021/10/13 06:38:52;;;;;;;3.63;0.70;;;18.20;66.10;;;;;;5027858;28;89541;-73
2021/10/13 06:41:17;;;;;;;2.55;0.85;;;18.20;66.20;;;;;;5019124;28;94438;-73
2021/10/13 06:43:43;;;;;;;3.22;1.00;;;18.20;66.30;;;;;;5034475;27;88331;-73
2021/10/13 06:46:09;;;;;;;2.53;0.85;;;18.20;66.10;;;;;;4998260;28;91237;-73
2021/10/13 06:48:34;;;;;;;3.75;1.77;;;18.30;68.10;;;;;;5015084;28;88326;-73
2021/10/13 06:51:00;;;;;;;2.85;1.20;;;18.20;65.80;;;;;;5014044;28;100728;-73
2021/10/13 06:53:26;;;;;;;5.57;1.48;;;18.20;66.50;;;;;;5023931;28;88793;-74
2021/10/13 06:55:52;;;;;;;4.50;1.70;;;18.10;66.10;;;;;;5022329;28;88440;-73
2021/10/13 06:58:18;;;;;;;2.95;1.25;;;18.20;66.30;;;;;;5021484;28;90974;-73
2021/10/13 07:00:43;;;;;;;4.68;1.17;;;18.20;67.10;;;;;;4998439;28;88252;-73
2021/10/13 07:03:09;;;;;;;3.65;1.23;;;18.20;68.80;;;;;;4997244;28;88031;-73
2021/10/13 07:05:35;;;;;;;2.92;1.38;;;18.20;66.60;;;;;;4996844;28;88856;-74
2021/10/13 07:08:01;;;;;;;2.95;1.13;;;18.30;66.90;;;;;;4995975;28;89046;-73
2021/10/13 07:10:26;;;;;;;5.20;1.10;;;18.30;67.70;;;;;;4995956;28;88324;-74
2021/10/13 07:12:52;;;;;;;2.17;0.90;;;18.20;67.30;;;;;;4996574;28;96558;-74
2021/10/13 07:15:18;;;;;;;1.48;0.80;;;18.20;69.50;;;;;;4997148;28;88627;-74
2021/10/13 07:17:44;;;;;;;3.63;0.90;;;18.30;66.50;;;;;;4997489;28;88471;-74
2021/10/13 07:20:10;;;;;;;2.67;1.00;;;18.30;66.20;;;;;;5013839;28;88055;-74
2021/10/13 07:22:35;;;;;;;5.30;1.00;;;18.30;65.80;;;;;;5015668;28;87831;-74
2021/10/13 07:25:01;;;;;;;4.75;1.40;;;18.30;65.90;;;;;;5014945;28;88640;-74
2021/10/13 07:27:27;;;;;;;1.33;1.15;;;18.30;69.00;;;;;;4998780;28;91192;-74
2021/10/13 07:29:57;;;;;;;1.65;0.80;;;18.40;67.10;;;;;;5032164;28;89524;-73
2021/10/13 07:32:24;;;;;;;7.53;1.67;;;18.40;68.40;;;;;;5016715;28;87944;-73
2021/10/13 07:34:49;;;;;;;2.50;1.15;;;18.50;69.90;;;;;;5051875;27;88696;-74
2021/10/13 07:37:15;;;;;;;2.25;1.30;;;18.50;69.10;;;;;;4994868;28;89665;-74
2021/10/13 07:39:40;;;;;;;4.30;1.45;;;18.60;69.20;;;;;;5016196;28;88047;-74
2021/10/13 07:42:06;;;;;;;2.65;1.00;;;18.60;67.30;;;;;;5014672;28;93926;-74
2021/10/13 07:44:32;;;;;;;4.57;1.75;;;18.60;68.10;;;;;;5015021;28;88110;-74
2021/10/13 07:46:57;;;;;;;6.20;1.92;;;18.50;68.40;;;;;;5015958;28;88443;-74
2021/10/13 07:49:23;;;;;;;4.82;1.40;;;18.60;67.80;;;;;;5016493;28;87954;-74
2021/10/13 07:51:49;;;;;;;2.60;1.27;;;18.60;67.00;;;;;;5017672;28;88271;-73
2021/10/13 07:54:14;;;;;;;3.28;1.55;;;18.60;67.20;;;;;;5012853;28;89424;-73
2021/10/13 07:56:40;;;;;;;2.88;1.08;;;18.60;66.90;;;;;;5015770;28;92552;-73
2021/10/13 07:59:06;;;;;;;2.95;0.90;;;18.70;66.60;;;;;;5014291;28;88073;-73
2021/10/13 08:01:31;;;;;;;6.40;1.60;;;18.70;66.90;;;;;;5010280;28;88326;-73
2021/10/13 08:03:57;;;;;;;4.15;1.85;;;18.70;68.70;;;;;;5016680;28;89023;-74
2021/10/13 08:06:22;;;;;;;3.10;1.80;;;18.70;67.70;;;;;;5014226;28;100406;-73
2021/10/13 08:08:48;;;;;;;3.55;1.58;;;18.80;68.20;;;;;;5016605;28;89553;-74
2021/10/13 08:11:14;;;;;;;3.78;1.33;;;18.80;66.20;;;;;;5014987;28;87655;-74
2021/10/13 08:13:39;;;;;;;4.13;1.20;;;18.80;65.90;;;;;;4993528;28;107746;-74
2021/10/13 08:16:05;;;;;;;5.35;1.30;;;18.80;66.60;;;;;;4978167;28;91146;-74
2021/10/13 08:18:31;;;;;;;3.17;1.15;;;18.70;65.00;;;;;;4977819;28;89919;-73
2021/10/13 08:20:56;;;;;;;2.72;1.00;;;18.70;67.50;;;;;;4995434;28;88746;-73
2021/10/13 08:23:23;;;;;;;3.40;1.30;;;18.70;66.20;;;;;;4994487;28;88798;-74
2021/10/13 08:25:48;;;;;;;4.38;1.02;;;18.70;66.00;;;;;;4995127;28;88287;-73
2021/10/13 08:28:14;;;;;;;5.30;1.27;;;18.80;65.50;;;;;;5004680;28;87955;-73
2021/10/13 08:30:40;;;;;;;4.70;1.58;;;18.80;67.20;;;;;;5016300;28;88083;-73
2021/10/13 08:33:05;;;;;;;3.75;1.02;;;18.70;64.80;;;;;;5031645;28;88999;-73
2021/10/13 08:35:31;;;;;;;2.97;1.27;;;18.70;64.80;;;;;;5048416;27;88224;-74
2021/10/13 08:37:56;;;;;;;1.52;0.77;;;18.70;65.30;;;;;;5032737;28;87995;-73
2021/10/13 08:40:22;;;;;;;4.25;1.00;;;18.70;65.30;;;;;;5033324;28;88074;-73
2021/10/13 08:42:56;;;;;;;1.17;0.85;;;18.70;65.30;;;;;;5009355;28;92307;-73
2021/10/13 08:45:22;;;;;;;5.05;1.58;;;18.70;63.90;;;;;;5013008;28;89156;-73
2021/10/13 08:47:48;;;;;;;4.88;1.10;;;18.70;65.70;;;;;;5013569;28;88085;-73
2021/10/13 08:50:13;;;;;;;3.50;1.48;;;18.70;65.20;;;;;;5014228;28;95802;-73
2021/10/13 08:52:39;;;;;;;5.30;2.95;;;18.70;66.40;;;;;;5013061;28;88780;-73
2021/10/13 08:55:05;;;;;;;2.90;0.88;;;18.70;64.80;;;;;;5015663;28;93501;-73
2021/10/13 08:57:30;;;;;;;4.97;1.70;;;18.70;63.60;;;;;;5018817;28;88916;-73
2021/10/13 08:59:56;;;;;;;2.08;0.82;;;18.80;63.90;;;;;;5018500;28;87630;-72
2021/10/13 09:02:41;;;;;;;3.05;1.10;;;18.70;64.00;;;;;;5017675;28;91868;-73
2021/10/13 09:05:07;;;;;;;2.97;1.08;;;18.80;63.10;;;;;;5000859;28;89458;-73
2021/10/13 09:07:33;;;;;;;7.60;1.35;;;18.80;63.60;;;;;;5016643;28;89240;-73
2021/10/13 09:09:59;;;;;;;5.43;1.30;;;18.70;63.70;;;;;;5017656;28;88127;-73
2021/10/13 09:12:32;;;;;;;5.05;0.90;;;18.80;63.20;;;;;;5016712;28;88619;-73
2021/10/13 09:15:11;;;;;;;;;;;18.80;63.60;;;;;;5018672;28;88700;-72
2021/10/13 09:18:00;;;;;;;4.60;0.90;;;18.90;63.60;;;;;;5019842;28;88274;-73
2021/10/13 09:20:36;;;;;;;1.60;1.10;;;18.90;63.00;;;;;;5016995;28;88521;-72
2021/10/13 09:23:04;;;;;;;2.38;0.80;;;18.90;62.50;;;;;;5001698;28;88872;-73
2021/10/13 09:25:30;;;;;;;1.60;1.50;;;18.90;63.20;;;;;;5018090;28;88341;-73
2021/10/13 09:27:58;;;;;;;2.55;1.00;;;18.90;63.30;;;;;;5018270;28;88036;-73
2021/10/13 09:30:30;;;;;;;4.15;1.05;;;18.90;63.30;;;;;;5032666;28;90400;-73
2021/10/13 09:32:55;;;;;;;5.07;0.80;;;19.00;61.40;;;;;;5017528;28;89238;-73
2021/10/13 09:35:28;;;;;;;2.20;0.73;;;18.90;62.30;;;;;;5033396;28;88947;-73
2021/10/13 09:37:54;;;;;;;2.15;0.73;;;18.90;61.40;;;;;;5030024;27;88251;-73
2021/10/13 09:40:27;;;;;;;2.20;1.30;;;18.90;62.20;;;;;;5041512;27;90655;-73
2021/10/13 09:42:54;;;;;;;2.72;0.98;;;18.90;62.10;;;;;;5013240;28;90939;-73
2021/10/13 09:45:20;;;;;;;0.80;0.77;;;18.90;62.40;;;;;;5013452;28;88825;-74
2021/10/13 09:47:45;;;;;;;3.28;0.80;;;18.90;61.70;;;;;;5038046;27;88165;-73
2021/10/13 09:50:13;;;;;;;2.83;0.82;;;18.90;61.90;;;;;;5017710;28;94902;-73
2021/10/13 09:52:38;;;;;;;1.88;0.70;;;19.00;62.80;;;;;;5036689;28;88849;-73
2021/10/13 09:55:12;;;;;;;1.58;0.73;;;19.00;62.50;;;;;;5036499;28;88499;-73
2021/10/13 09:57:46;;;;;;;3.72;1.13;;;19.00;60.60;;;;;;5035941;28;88996;-73
2021/10/13 10:00:12;;;;;;;2.95;0.73;;;18.90;62.00;;;;;;5036371;28;88342;-74
2021/10/13 10:02:48;;;;;;;2.78;1.23;;;19.00;61.90;;;;;;5019423;28;91161;-73
2021/10/13 10:05:16;;;;;;;2.17;0.82;;;19.00;63.20;;;;;;5037715;27;88150;-73
2021/10/13 10:07:45;;;;;;;3.95;1.00;;;19.00;62.50;;;;;;5020421;28;89082;-73
2021/10/13 10:10:14;;;;;;;1.67;0.82;;;19.00;62.70;;;;;;5036295;28;88617;-73
2021/10/13 10:12:58;;;;;;;2.10;0.60;;;19.10;62.00;;;;;;5032335;28;89563;-73
2021/10/13 10:15:42;;;;;;;1.52;0.75;;;19.10;62.40;;;;;;5017628;28;88284;-73
2021/10/13 10:18:27;;;;;;;1.60;0.68;;;19.10;63.20;;;;;;5017526;28;88087;-73
2021/10/13 10:20:53;;;;;;;3.50;0.73;;;19.10;61.50;;;;;;5017972;28;88378;-73
2021/10/13 10:23:32;;;;;;;3.45;0.68;;;19.10;62.90;;;;;;5015937;28;89622;-73
2021/10/13 10:26:19;;;;;;;1.95;0.93;;;19.10;62.10;;;;;;4984275;28;92282;-73
2021/10/13 10:28:54;;;;;;;3.22;1.00;;;19.20;62.10;;;;;;5017560;28;88056;-73
2021/10/13 10:31:28;;;;;;;1.80;0.68;;;19.20;62.00;;;;;;5017596;28;88052;-73
2021/10/13 10:34:02;;;;;;;1.42;1.13;;;19.30;62.10;;;;;;5017650;28;88189;-74
2021/10/13 10:36:48;;;;;;;2.92;0.90;;;19.20;62.90;;;;;;5017781;28;88292;-74
2021/10/13 10:39:16;;;;;;;2.78;0.80;;;19.10;62.70;;;;;;5012738;27;88125;-74
2021/10/13 10:41:45;;;;;;;2.05;1.20;;;19.10;62.30;;;;;;5033387;28;88268;-74
2021/10/13 10:44:29;;;;;;;1.77;1.00;;;19.10;63.70;;;;;;5031378;27;88565;-73
2021/10/13 10:47:02;;;;;;;2.20;1.08;;;19.10;61.90;;;;;;4997357;28;88301;-73
2021/10/13 10:49:46;;;;;;;0.90;0.60;;;19.10;62.60;;;;;;4997562;28;89575;-73
2021/10/13 10:52:11;;;;;;;;;;;19.10;62.10;;;;;;4997974;28;88033;-73
2021/10/13 10:54:37;;;;;;;2.72;0.90;;;19.00;62.50;;;;;;4998842;28;88737;-73
2021/10/13 10:57:23;;;;;;;4.45;1.00;;;19.00;63.10;;;;;;4996562;28;88456;-74
2021/10/13 10:59:49;;;;;;;1.15;0.50;;;19.00;62.40;;;;;;5011312;28;89419;-73
2021/10/13 11:02:21;;;;;;;1.10;0.70;;;19.00;62.90;;;;;;5012002;28;99330;-73
2021/10/13 11:05:09;;;;;;;1.42;0.90;;;19.10;61.50;;;;;;4996034;28;89224;-73
2021/10/13 11:07:36;;;;;;;1.15;0.60;;;19.10;64.00;;;;;;5018453;28;89742;-74
2021/10/13 11:10:03;;;;;;;1.23;0.60;;;19.30;64.20;;;;;;5019180;28;89318;-74
2021/10/13 11:12:46;;;;;;;1.17;0.65;;;19.30;63.60;;;;;;5031231;28;88716;-73
2021/10/13 11:15:12;;;;;;;0.90;0.63;;;19.30;62.00;;;;;;5009239;28;89260;-73
2021/10/13 11:17:37;;;;;;;0.90;0.70;;;19.30;62.60;;;;;;5003951;28;90040;-73
2021/10/13 11:20:07;;;;;;;0.80;0.80;;;19.30;61.70;;;;;;5011185;28;94651;-74
2021/10/13 11:22:33;;;;;;;1.13;0.70;;;19.20;61.60;;;;;;5015209;28;88195;-73
2021/10/13 11:24:59;;;;;;;2.67;0.82;;;19.20;61.00;;;;;;5012486;28;88605;-74
2021/10/13 11:27:24;;;;;;;0.95;0.68;;;19.20;62.40;;;;;;5001801;28;99126;-73
2021/10/13 11:29:50;;;;;;;1.88;0.80;;;19.20;61.80;;;;;;5026541;28;88152;-73
2021/10/13 11:32:16;;;;;;;1.65;0.60;;;19.20;62.20;;;;;;5010822;28;87503;-73
2021/10/13 11:34:58;;;;;;;1.98;0.82;;;19.20;60.80;;;;;;5022171;28;88713;-73
2021/10/13 11:37:27;;;;;;;0.70;0.70;;;19.30;61.10;;;;;;5028380;27;88341;-74
2021/10/13 11:39:53;;;;;;;1.48;0.55;;;19.30;62.30;;;;;;5022028;28;89205;-73
2021/10/13 11:42:18;;;;;;;1.70;0.60;;;19.30;60.50;;;;;;5016027;28;88278;-73
2021/10/13 11:44:48;;;;;;;1.38;0.60;;;19.30;61.40;;;;;;5015140;28;91179;-73
2021/10/13 11:47:14;;;;;;;1.63;0.50;;;19.30;62.70;;;;;;5014847;28;88372;-73
2021/10/13 11:50:13;;;;;;;1.08;0.57;;;19.30;62.60;;;;;;5014948;28;88121;-73
2021/10/13 11:52:43;;;;;;;2.15;0.82;;;19.30;62.70;;;;;;5004528;28;88385;-73
2021/10/13 11:55:13;;;;;;;2.28;0.55;;;19.30;61.10;;;;;;4994810;28;88587;-73
2021/10/13 11:57:40;;;;;;;0.90;0.65;;;19.30;61.20;;;;;;4998885;28;88748;-73
2021/10/13 12:00:13;;;;;;;1.35;0.73;;;19.30;62.60;;;;;;4997322;28;88489;-73
2021/10/13 12:02:38;;;;;;;2.17;0.95;;;19.30;62.60;;;;;;5015305;28;87974;-74
2021/10/13 12:05:06;;;;;;;0.88;0.52;;;19.40;61.50;;;;;;5014616;28;89294;-74
2021/10/13 12:07:40;;;;;;;2.10;0.60;;;19.40;61.00;;;;;;5014202;28;89893;-73
2021/10/13 12:10:06;;;;;;;1.38;0.73;;;19.50;62.40;;;;;;4998553;28;89446;-72
2021/10/13 12:12:32;;;;;;;1.92;0.95;;;19.50;60.60;;;;;;4992527;28;90519;-72
2021/10/13 12:14:57;;;;;;;1.40;0.80;;;19.50;59.70;;;;;;5018267;27;88670;-71
2021/10/13 12:17:25;;;;;;;2.55;0.90;;;19.60;60.90;;;;;;4996650;28;89539;-73
2021/10/13 12:19:51;;;;;;;2.20;0.80;;;19.60;60.20;;;;;;5014124;28;88104;-72
2021/10/13 12:22:17;;;;;;;2.22;0.63;;;19.60;62.20;;;;;;5014299;28;87419;-75
2021/10/13 12:24:42;;;;;;;3.33;0.90;;;19.60;62.80;;;;;;5015061;28;88637;-73
2021/10/13 12:27:11;;;;;;;2.50;0.77;;;19.60;62.70;;;;;;5013218;28;88148;-70
2021/10/13 12:29:43;;;;;;;2.33;0.65;;;19.60;62.60;;;;;;5050152;27;89231;-73
2021/10/13 12:32:22;;;;;;;2.80;0.70;;;19.60;62.30;;;;;;5017051;28;88104;-75
2021/10/13 12:34:48;;;;;;;3.83;0.85;;;19.60;61.50;;;;;;5017737;28;88786;-76
2021/10/13 12:37:13;;;;;;;1.60;0.80;;;19.70;61.70;;;;;;5009444;28;91235;-77
2021/10/13 12:39:39;;;;;;;0.93;0.80;;;19.60;61.50;;;;;;5025867;27;92760;-76
2021/10/13 12:42:11;;;;;;;7.65;0.90;;;19.70;62.50;;;;;;4982039;28;90615;-76
2021/10/13 12:44:38;;;;;;;3.42;1.00;;;19.70;61.10;;;;;;5000964;28;88607;-74
2021/10/13 12:47:18;;;;;;;1.27;0.70;;;19.70;62.90;;;;;;5017005;28;88085;-74
2021/10/13 12:49:50;;;;;;;5.35;1.02;;;19.70;62.90;;;;;;4999136;28;88342;-74
2021/10/13 12:52:22;;;;;;;1.45;0.80;;;19.70;63.00;;;;;;5033335;28;88166;-74